Time;durP1;ratioP1;P1;durP2;ratioP2;P2;SDS_P1;SDS_P2;PMS_P1;PMS_P2;Temp;Humidity;BMP_temperature;BMP_pressure;BME280_temperature;BME280_humidity;BME280_pressure;Samples;Min_cycle;Max_cycle;Signal;HPM_P1;HPM_P2
2023/02/22 00:01:35;;;;;;;34.92;30.20;;;10.70;67.20;;;;;;4924252;29;20040;-75
2023/02/22 00:04:06;;;;;;;33.92;30.20;;;10.70;67.30;;;;;;4924303;29;20710;-73
2023/02/22 00:06:32;;;;;;;36.95;31.75;;;10.70;67.30;;;;;;4926562;29;20039;-75
2023/02/22 00:08:58;;;;;;;35.20;31.35;;;10.60;67.20;;;;;;4918248;29;20040;-74
2023/02/22 00:11:25;;;;;;;36.78;30.92;;;10.60;67.30;;;;;;4926157;29;20039;-75
2023/02/22 00:13:51;;;;;;;36.80;32.58;;;10.60;67.30;;;;;;4923461;29;20039;-75
2023/02/22 00:16:20;;;;;;;38.55;32.50;;;10.60;67.30;;;;;;4920534;29;20214;-75
2023/02/22 00:18:47;;;;;;;36.83;31.52;;;10.60;67.30;;;;;;4925302;29;20115;-75
2023/02/22 00:21:15;;;;;;;36.75;32.30;;;10.60;67.40;;;;;;4924368;29;20038;-75
2023/02/22 00:23:45;;;;;;;37.67;32.03;;;10.60;67.40;;;;;;4924081;29;20035;-75
2023/02/22 00:26:16;;;;;;;42.95;33.60;;;10.60;67.40;;;;;;4925269;29;20119;-74
2023/02/22 00:28:48;;;;;;;38.72;33.78;;;10.60;67.40;;;;;;4922970;29;20036;-75
2023/02/22 00:31:14;;;;;;;36.85;32.55;;;10.60;67.50;;;;;;4921220;29;20130;-74
2023/02/22 00:33:41;;;;;;;40.10;33.13;;;10.60;67.50;;;;;;4921084;29;20086;-74
2023/02/22 00:36:09;;;;;;;39.22;32.67;;;10.60;67.50;;;;;;4922136;29;20040;-74
2023/02/22 00:38:35;;;;;;;37.17;32.30;;;10.50;67.40;;;;;;4925221;29;20519;-74
2023/02/22 00:41:02;;;;;;;36.65;32.28;;;10.50;67.50;;;;;;4920743;29;20090;-74
2023/02/22 00:43:27;;;;;;;37.45;32.10;;;10.50;67.50;;;;;;4924891;29;20061;-74
2023/02/22 00:45:53;;;;;;;36.95;33.03;;;10.50;67.50;;;;;;4923622;29;20134;-74
2023/02/22 00:48:19;;;;;;;36.85;31.80;;;10.50;67.50;;;;;;4925645;29;20036;-73
2023/02/22 00:50:47;;;;;;;37.83;32.38;;;10.50;67.60;;;;;;4925967;29;20034;-73
2023/02/22 00:53:14;;;;;;;38.58;32.75;;;10.50;67.60;;;;;;4924911;29;20060;-73
2023/02/22 00:55:40;;;;;;;37.83;33.05;;;10.50;67.70;;;;;;4925072;29;20058;-73
2023/02/22 00:58:06;;;;;;;37.00;32.33;;;10.50;67.70;;;;;;4920096;29;20036;-72
2023/02/22 01:00:38;;;;;;;36.63;31.13;;;10.50;67.70;;;;;;4925416;29;20028;-73
2023/02/22 01:03:05;;;;;;;38.22;31.77;;;10.40;67.60;;;;;;4923458;29;20422;-73
2023/02/22 01:05:32;;;;;;;39.58;33.45;;;10.40;67.60;;;;;;4925109;29;20074;-73
2023/02/22 01:07:59;;;;;;;40.55;33.95;;;10.40;67.60;;;;;;4925503;29;20035;-73
2023/02/22 01:10:28;;;;;;;41.40;33.38;;;10.40;67.60;;;;;;4918925;29;20071;-73
2023/02/22 01:12:54;;;;;;;36.45;31.40;;;10.40;67.70;;;;;;4921205;29;20089;-73
2023/02/22 01:15:24;;;;;;;35.80;31.90;;;10.40;67.70;;;;;;4919410;29;20036;-72
2023/02/22 01:17:52;;;;;;;35.97;30.23;;;10.40;67.70;;;;;;4922169;29;20055;-73
2023/02/22 01:20:21;;;;;;;34.47;30.70;;;10.40;67.80;;;;;;4915923;29;20392;-73
2023/02/22 01:22:50;;;;;;;36.42;31.05;;;10.40;67.80;;;;;;4923264;29;20507;-73
2023/02/22 01:25:19;;;;;;;36.55;30.05;;;10.40;67.80;;;;;;4921243;29;20055;-73
2023/02/22 01:27:45;;;;;;;36.92;30.45;;;10.40;67.80;;;;;;4921470;29;20036;-73
2023/02/22 01:30:12;;;;;;;33.42;29.50;;;10.40;67.80;;;;;;4924800;29;20058;-74
2023/02/22 01:32:41;;;;;;;35.92;31.15;;;10.40;67.90;;;;;;4916687;29;20043;-73
2023/02/22 01:35:14;;;;;;;36.83;31.90;;;10.30;67.70;;;;;;4924800;29;20032;-74
2023/02/22 01:37:41;;;;;;;34.63;28.63;;;10.40;68.00;;;;;;4922474;29;20039;-74
2023/02/22 01:40:10;;;;;;;35.90;29.38;;;10.40;68.00;;;;;;4924013;29;20071;-75
2023/02/22 01:42:36;;;;;;;36.67;30.77;;;10.40;68.00;;;;;;4919895;29;20455;-75
2023/02/22 01:45:31;;;;;;;34.83;29.55;;;10.30;68.40;;;;;;4921673;29;20247;-75
2023/02/22 01:48:35;;;;;;;33.85;29.67;;;10.30;67.90;;;;;;4913254;29;20097;-74
2023/02/22 01:51:11;;;;;;;34.25;27.75;;;10.30;67.90;;;;;;4882000;29;20040;-74
2023/02/22 01:53:43;;;;;;;32.90;29.10;;;10.30;67.90;;;;;;4918714;29;20523;-74
2023/02/22 01:56:11;;;;;;;32.15;26.38;;;10.30;67.90;;;;;;4922627;29;20035;-74
2023/02/22 01:58:42;;;;;;;35.85;28.10;;;10.30;68.00;;;;;;4914165;29;20053;-74
2023/02/22 02:01:09;;;;;;;32.17;26.98;;;10.30;68.00;;;;;;4925028;29;20427;-74
2023/02/22 02:03:38;;;;;;;29.75;26.55;;;10.30;68.00;;;;;;4907013;29;20028;-74
2023/02/22 02:06:10;;;;;;;30.33;26.65;;;10.30;68.10;;;;;;4922729;29;20047;-75
2023/02/22 02:08:50;;;;;;;33.45;27.70;;;10.30;68.10;;;;;;4915300;29;20392;-74
2023/02/22 02:11:19;;;;;;;33.42;27.88;;;10.30;68.10;;;;;;4921531;29;20579;-75
2023/02/22 02:13:48;;;;;;;28.98;25.80;;;10.30;68.10;;;;;;4920541;29;20036;-75
2023/02/22 02:16:14;;;;;;;32.15;27.58;;;10.30;68.10;;;;;;4922191;29;20035;-75
2023/02/22 02:18:41;;;;;;;33.20;27.20;;;10.20;68.00;;;;;;4928174;29;20083;-75
2023/02/22 02:21:10;;;;;;;31.13;26.35;;;10.20;68.00;;;;;;4926313;29;20044;-74
2023/02/22 02:23:59;;;;;;;31.35;25.42;;;10.20;68.00;;;;;;4922181;29;20032;-74
2023/02/22 02:26:52;;;;;;;32.60;26.60;;;10.20;68.10;;;;;;4927265;29;20368;-75
2023/02/22 02:29:43;;;;;;;29.27;25.17;;;10.20;68.10;;;;;;4925425;29;20411;-75
2023/02/22 02:32:34;;;;;;;28.67;24.38;;;10.20;68.20;;;;;;4922007;29;20587;-75
2023/02/22 02:35:20;;;;;;;29.88;25.98;;;10.10;68.00;;;;;;4918884;29;20373;-74
2023/02/22 02:38:00;;;;;;;;;;;10.10;68.00;;;;;;4926852;29;20492;-75
2023/02/22 02:40:44;;;;;;;28.00;24.83;;;10.10;68.00;;;;;;4924710;29;19914;-74
2023/02/22 02:43:16;;;;;;;30.70;25.30;;;10.10;67.90;;;;;;4926538;29;20455;-74
2023/02/22 02:45:53;;;;;;;30.17;25.02;;;10.10;68.00;;;;;;4923166;29;20040;-74
2023/02/22 02:48:24;;;;;;;34.33;27.42;;;10.10;68.10;;;;;;4921516;29;20024;-74
2023/02/22 02:50:51;;;;;;;30.70;24.02;;;10.10;68.20;;;;;;4928554;29;20480;-74
2023/02/22 02:53:21;;;;;;;30.73;25.85;;;10.10;68.20;;;;;;4921041;29;20046;-74
2023/02/22 02:55:49;;;;;;;33.13;25.50;;;10.10;68.20;;;;;;4929557;29;20038;-75
2023/02/22 02:58:22;;;;;;;30.98;25.85;;;10.10;68.20;;;;;;4926716;29;20092;-75
2023/02/22 03:00:51;;;;;;;30.65;25.30;;;10.00;68.10;;;;;;4919479;29;20046;-75
2023/02/22 03:03:36;;;;;;;32.13;25.85;;;10.00;68.10;;;;;;4931786;29;20040;-74
2023/02/22 03:06:11;;;;;;;30.23;24.58;;;10.00;68.10;;;;;;4928928;29;20039;-75
2023/02/22 03:08:55;;;;;;;27.73;24.38;;;10.10;68.30;;;;;;4930977;29;20829;-75
2023/02/22 03:11:36;;;;;;;32.40;25.73;;;10.00;68.20;;;;;;4929768;29;20043;-74
2023/02/22 03:14:16;;;;;;;29.00;24.15;;;10.10;68.30;;;;;;4929600;29;20032;-75
2023/02/22 03:17:08;;;;;;;30.23;25.50;;;10.00;68.20;;;;;;4931893;29;20050;-75
2023/02/22 03:19:42;;;;;;;30.45;23.88;;;10.00;68.20;;;;;;4928327;29;20043;-75
2023/02/22 03:22:17;;;;;;;31.35;25.02;;;10.00;68.20;;;;;;4929650;29;20078;-74
2023/02/22 03:24:54;;;;;;;29.48;24.13;;;10.00;68.20;;;;;;4928499;29;20400;-75
2023/02/22 03:27:31;;;;;;;31.02;24.95;;;10.00;68.80;;;;;;4930657;29;20039;-75
2023/02/22 03:30:03;;;;;;;30.83;25.20;;;10.00;68.30;;;;;;4918496;28;20048;-75
2023/02/22 03:32:35;;;;;;;29.80;24.90;;;10.00;68.30;;;;;;4930424;29;20027;-75
2023/02/22 03:35:11;;;;;;;33.88;24.95;;;10.00;68.30;;;;;;4922411;29;20036;-75
2023/02/22 03:37:43;;;;;;;30.02;25.10;;;10.00;68.40;;;;;;4930292;29;20134;-75
2023/02/22 03:40:17;;;;;;;33.40;25.70;;;10.00;68.40;;;;;;4928880;29;20036;-74
2023/02/22 03:42:50;;;;;;;29.50;24.83;;;10.00;68.40;;;;;;4929571;29;20030;-74
2023/02/22 03:45:19;;;;;;;31.13;25.00;;;10.00;68.40;;;;;;4926865;29;20052;-75
2023/02/22 03:47:51;;;;;;;29.08;24.48;;;10.00;68.40;;;;;;4929173;29;20087;-75
2023/02/22 03:50:21;;;;;;;30.10;25.27;;;10.00;69.00;;;;;;4930421;29;20063;-74
2023/02/22 03:52:47;;;;;;;29.75;24.17;;;9.90;68.30;;;;;;4928994;29;20032;-74
2023/02/22 03:55:22;;;;;;;30.98;25.13;;;10.00;68.50;;;;;;4928225;29;20055;-75
2023/02/22 03:57:53;;;;;;;31.00;24.52;;;9.90;68.40;;;;;;4927033;29;20047;-74
2023/02/22 04:00:23;;;;;;;31.60;24.48;;;10.00;68.50;;;;;;4923804;29;20086;-75
2023/02/22 04:02:50;;;;;;;29.42;23.08;;;10.00;68.80;;;;;;4930521;29;20623;-74
2023/02/22 04:05:19;;;;;;;30.65;24.48;;;10.00;68.50;;;;;;4927433;29;20103;-75
2023/02/22 04:07:46;;;;;;;31.23;25.33;;;10.00;68.50;;;;;;4929180;29;20065;-75
2023/02/22 04:10:14;;;;;;;27.75;23.23;;;10.00;68.50;;;;;;4927566;29;20069;-75
2023/02/22 04:12:40;;;;;;;28.92;22.98;;;10.00;68.60;;;;;;4928734;29;20065;-75
2023/02/22 04:15:08;;;;;;;30.55;25.20;;;10.00;68.60;;;;;;4928689;29;20535;-75
2023/02/22 04:17:35;;;;;;;29.17;24.27;;;9.90;68.50;;;;;;4922910;29;20420;-75
2023/02/22 04:20:03;;;;;;;30.35;24.00;;;10.00;68.60;;;;;;4929046;29;20040;-75
2023/02/22 04:22:40;;;;;;;28.55;22.65;;;9.90;68.50;;;;;;4926648;29;20028;-75
2023/02/22 04:25:06;;;;;;;30.42;23.92;;;9.90;68.50;;;;;;4927615;29;20043;-75
2023/02/22 04:27:33;;;;;;;30.00;23.35;;;9.90;68.50;;;;;;4929937;29;20559;-74
2023/02/22 04:30:00;;;;;;;29.38;23.65;;;9.90;68.60;;;;;;4916326;29;20645;-75
2023/02/22 04:32:27;;;;;;;31.63;22.45;;;9.90;68.60;;;;;;4928599;29;20043;-75
2023/02/22 04:34:53;;;;;;;30.20;24.85;;;9.90;68.60;;;;;;4929085;29;20080;-75
2023/02/22 04:37:19;;;;;;;28.48;23.67;;;9.90;68.60;;;;;;4928247;29;20036;-76
2023/02/22 04:39:45;;;;;;;30.25;23.77;;;9.90;68.60;;;;;;4927818;29;20043;-74
2023/02/22 04:42:11;;;;;;;29.60;22.15;;;9.90;68.60;;;;;;4928029;29;20038;-74
2023/02/22 04:44:38;;;;;;;27.10;22.95;;;9.90;68.70;;;;;;4928080;29;20166;-74
2023/02/22 04:47:04;;;;;;;27.00;22.90;;;9.90;68.70;;;;;;4913032;29;20085;-74
2023/02/22 04:49:30;;;;;;;27.90;22.15;;;9.90;68.70;;;;;;4928870;29;20610;-75
2023/02/22 04:51:56;;;;;;;27.77;22.52;;;9.90;68.70;;;;;;4926700;29;20917;-74
2023/02/22 04:54:30;;;;;;;26.52;22.80;;;9.90;68.70;;;;;;4927931;29;20555;-74
2023/02/22 04:56:56;;;;;;;27.88;22.08;;;9.90;68.70;;;;;;4928991;29;20050;-73
2023/02/22 04:59:22;;;;;;;29.23;23.48;;;9.90;68.70;;;;;;4927683;29;20039;-73
2023/02/22 05:01:54;;;;;;;27.63;22.15;;;9.90;68.70;;;;;;4927449;29;20050;-73
2023/02/22 05:04:20;;;;;;;26.23;21.35;;;9.90;68.70;;;;;;4929178;29;20627;-73
2023/02/22 05:06:47;;;;;;;25.00;21.27;;;9.90;68.70;;;;;;4928066;29;20181;-74
2023/02/22 05:09:13;;;;;;;30.80;22.77;;;9.90;68.70;;;;;;4926319;29;20150;-74
2023/02/22 05:11:39;;;;;;;26.70;21.88;;;9.90;68.70;;;;;;4926577;29;20496;-74
2023/02/22 05:14:05;;;;;;;27.50;22.05;;;9.90;68.70;;;;;;4928967;29;20052;-73
2023/02/22 05:16:31;;;;;;;27.10;22.17;;;9.80;68.60;;;;;;4927923;29;20035;-73
2023/02/22 05:18:56;;;;;;;26.33;21.35;;;9.90;68.80;;;;;;4929149;29;20036;-73
2023/02/22 05:21:22;;;;;;;26.35;22.25;;;9.90;68.80;;;;;;4926499;29;20037;-73
2023/02/22 05:23:48;;;;;;;26.50;22.27;;;9.90;68.80;;;;;;4929170;29;20126;-74
2023/02/22 05:26:14;;;;;;;26.55;21.23;;;9.90;68.80;;;;;;4928266;29;20071;-74
2023/02/22 05:28:40;;;;;;;28.17;21.00;;;9.90;68.90;;;;;;4915226;29;20119;-74
2023/02/22 05:31:07;;;;;;;26.52;20.90;;;9.80;68.70;;;;;;4923533;29;20110;-74
2023/02/22 05:33:33;;;;;;;25.98;19.83;;;9.90;68.90;;;;;;4926138;29;20153;-74
2023/02/22 05:35:59;;;;;;;27.30;21.30;;;9.90;68.90;;;;;;4926375;29;20122;-73
2023/02/22 05:38:25;;;;;;;24.83;20.90;;;9.90;68.90;;;;;;4927396;29;20028;-74
2023/02/22 05:40:51;;;;;;;24.10;19.65;;;9.90;68.90;;;;;;4922266;29;20075;-74
2023/02/22 05:43:17;;;;;;;28.50;22.08;;;10.00;69.10;;;;;;4928243;29;20039;-74
2023/02/22 05:45:43;;;;;;;24.83;20.27;;;9.90;68.90;;;;;;4926587;29;20047;-74
2023/02/22 05:48:08;;;;;;;24.10;19.30;;;9.90;68.90;;;;;;4924778;29;20055;-73
2023/02/22 05:50:34;;;;;;;24.73;20.45;;;9.90;68.90;;;;;;4923699;29;20032;-74
2023/02/22 05:53:01;;;;;;;25.20;21.48;;;10.00;69.10;;;;;;4924917;29;20036;-74
2023/02/22 05:55:27;;;;;;;23.75;19.60;;;10.00;69.10;;;;;;4923984;29;20047;-73
2023/02/22 05:57:53;;;;;;;23.80;19.67;;;10.00;69.10;;;;;;4920140;29;20064;-74
2023/02/22 06:00:25;;;;;;;25.92;21.15;;;10.00;69.10;;;;;;4924764;29;20154;-75
2023/02/22 06:03:12;;;;;;;25.90;20.45;;;10.00;69.10;;;;;;4899978;29;20044;-75
2023/02/22 06:05:40;;;;;;;23.90;19.33;;;10.00;69.10;;;;;;4908872;29;20044;-74
2023/02/22 06:08:06;;;;;;;24.58;20.33;;;10.00;69.10;;;;;;4924851;29;20042;-74
2023/02/22 06:10:33;;;;;;;26.83;21.20;;;10.00;69.10;;;;;;4920599;29;20032;-74
2023/02/22 06:13:00;;;;;;;22.83;19.02;;;10.00;69.10;;;;;;4920363;29;20032;-74
2023/02/22 06:15:27;;;;;;;24.35;19.80;;;10.00;69.20;;;;;;4919742;29;20047;-74
2023/02/22 06:17:54;;;;;;;22.83;19.17;;;10.00;69.10;;;;;;4919536;29;20043;-75
2023/02/22 06:20:22;;;;;;;25.70;20.75;;;10.00;69.20;;;;;;4918473;29;20039;-74
2023/02/22 06:22:49;;;;;;;26.17;19.38;;;10.00;69.10;;;;;;4922293;29;20049;-74
2023/02/22 06:25:18;;;;;;;23.98;19.15;;;10.00;69.20;;;;;;4921484;29;20368;-74
2023/02/22 06:27:44;;;;;;;24.10;19.67;;;10.00;69.20;;;;;;4925012;29;20031;-74
2023/02/22 06:30:12;;;;;;;21.63;18.83;;;10.00;69.20;;;;;;4933811;29;20921;-74
2023/02/22 06:32:38;;;;;;;23.77;19.00;;;10.00;69.20;;;;;;4922347;28;20064;-74
2023/02/22 06:35:04;;;;;;;21.35;18.00;;;10.00;69.20;;;;;;4915066;29;20225;-74
2023/02/22 06:37:30;;;;;;;23.33;18.20;;;10.00;69.20;;;;;;4921904;29;20492;-74
2023/02/22 06:39:56;;;;;;;21.08;17.27;;;10.00;69.80;;;;;;4919183;29;20046;-75
2023/02/22 06:42:22;;;;;;;22.90;18.98;;;10.00;69.30;;;;;;4921814;29;20039;-75
2023/02/22 06:44:48;;;;;;;22.20;17.67;;;10.10;69.50;;;;;;4911486;29;20078;-75
2023/02/22 06:47:14;;;;;;;23.48;18.55;;;10.10;69.50;;;;;;4913198;29;20055;-75
2023/02/22 06:49:40;;;;;;;21.58;17.15;;;10.10;69.50;;;;;;4919018;29;20163;-75
2023/02/22 06:52:08;;;;;;;22.10;18.23;;;10.10;69.50;;;;;;4921576;29;20725;-74
2023/02/22 06:54:35;;;;;;;23.65;17.92;;;10.00;69.30;;;;;;4911139;29;20040;-76
2023/02/22 06:57:01;;;;;;;23.17;18.05;;;10.00;69.30;;;;;;4921801;29;20050;-76
2023/02/22 06:59:27;;;;;;;25.90;18.70;;;10.10;69.50;;;;;;4918934;29;20035;-79
2023/02/22 07:01:53;;;;;;;21.08;17.90;;;10.10;69.50;;;;;;4928143;29;20091;-75
2023/02/22 07:04:20;;;;;;;18.33;14.90;;;10.00;69.30;;;;;;4925677;29;20043;-80
2023/02/22 07:06:47;;;;;;;18.60;14.68;;;10.10;69.60;;;;;;4922488;29;20047;-79
2023/02/22 07:09:15;;;;;;;17.10;14.57;;;10.10;69.90;;;;;;4917640;29;20397;-78
2023/02/22 07:11:41;;;;;;;18.02;15.43;;;10.10;70.00;;;;;;4924294;29;20035;-77
2023/02/22 07:14:07;;;;;;;22.73;16.50;;;10.20;70.20;;;;;;4924933;29;20035;-76
2023/02/22 07:16:33;;;;;;;20.58;15.35;;;10.20;70.30;;;;;;4922143;29;20118;-82
2023/02/22 07:18:59;;;;;;;17.40;14.40;;;10.20;70.50;;;;;;4919715;29;20054;-81
2023/02/22 07:21:29;;;;;;;17.48;14.52;;;10.30;70.90;;;;;;4923882;29;20046;-80
2023/02/22 07:23:57;;;;;;;15.82;13.20;;;10.40;71.30;;;;;;4922922;29;20059;-80
2023/02/22 07:26:24;;;;;;;17.60;13.40;;;10.40;71.40;;;;;;4922067;29;20036;-80
2023/02/22 07:28:50;;;;;;;16.85;12.90;;;10.50;71.60;;;;;;4923472;28;20051;-79
2023/02/22 07:31:17;;;;;;;17.88;13.88;;;10.60;71.90;;;;;;4917775;29;20039;-78
2023/02/22 07:33:45;;;;;;;17.45;12.27;;;10.70;72.30;;;;;;4924323;29;20035;-79
2023/02/22 07:36:16;;;;;;;14.80;11.73;;;10.80;72.60;;;;;;4918172;29;20210;-74
2023/02/22 07:38:45;;;;;;;16.33;12.50;;;10.90;72.70;;;;;;4922197;29;20189;-74
2023/02/22 07:41:11;;;;;;;14.02;10.68;;;11.00;72.90;;;;;;4920792;29;20227;-74
2023/02/22 07:43:37;;;;;;;16.88;10.23;;;11.00;72.80;;;;;;4917402;29;20087;-74
2023/02/22 07:46:03;;;;;;;16.08;11.70;;;11.10;72.90;;;;;;4919219;29;20404;-75
2023/02/22 07:48:30;;;;;;;13.88;10.13;;;11.10;72.90;;;;;;4924567;29;20032;-74
2023/02/22 07:50:57;;;;;;;11.70;9.82;;;11.10;72.90;;;;;;4923541;29;20047;-74
2023/02/22 07:53:28;;;;;;;13.52;10.07;;;11.20;73.10;;;;;;4917414;29;20284;-74
2023/02/22 07:55:59;;;;;;;9.48;7.75;;;11.20;73.10;;;;;;4922868;29;20099;-80
2023/02/22 07:58:28;;;;;;;12.05;8.43;;;11.20;73.10;;;;;;4920834;29;20046;-80
2023/02/22 08:00:54;;;;;;;10.85;7.85;;;11.30;73.30;;;;;;4921052;29;20039;-80
2023/02/22 08:03:22;;;;;;;11.32;7.50;;;11.30;73.30;;;;;;4924331;29;20192;-81
2023/02/22 08:05:53;;;;;;;9.45;7.03;;;11.40;73.40;;;;;;4920429;29;20058;-82
2023/02/22 08:08:20;;;;;;;7.70;6.93;;;11.40;73.40;;;;;;4922645;29;20028;-81
2023/02/22 08:10:47;;;;;;;8.60;6.57;;;11.50;73.50;;;;;;4920169;29;20055;-81
2023/02/22 08:13:14;;;;;;;8.90;7.13;;;11.50;73.40;;;;;;4924010;29;20039;-81
2023/02/22 08:15:43;;;;;;;8.48;5.85;;;11.60;73.60;;;;;;4923809;29;20118;-80
2023/02/22 08:18:14;;;;;;;9.55;6.15;;;11.60;73.50;;;;;;4919779;29;20051;-81
2023/02/22 08:20:42;;;;;;;6.40;5.60;;;11.70;73.70;;;;;;4914694;29;20036;-82
2023/02/22 08:23:09;;;;;;;7.05;5.65;;;11.70;73.60;;;;;;4921947;29;20047;-82
2023/02/22 08:25:35;;;;;;;5.07;4.45;;;11.80;73.70;;;;;;4918933;29;20044;-81
2023/02/22 08:28:10;;;;;;;7.22;5.22;;;11.80;73.60;;;;;;4920131;29;20054;-81
2023/02/22 08:30:37;;;;;;;6.47;4.57;;;11.90;73.70;;;;;;4922284;29;20491;-79
2023/02/22 08:33:04;;;;;;;6.30;4.63;;;11.90;73.60;;;;;;4921973;29;20376;-79
2023/02/22 08:35:31;;;;;;;5.65;4.80;;;12.00;73.80;;;;;;4920121;29;20275;-80
2023/02/22 08:38:00;;;;;;;4.80;4.30;;;12.00;73.80;;;;;;4923382;29;20550;-81
2023/02/22 08:40:29;;;;;;;6.20;5.22;;;12.00;73.80;;;;;;4922563;29;20075;-80
2023/02/22 08:42:56;;;;;;;6.90;4.90;;;12.00;73.80;;;;;;4922966;29;20031;-80
2023/02/22 08:45:22;;;;;;;6.55;4.68;;;12.00;73.80;;;;;;4923146;29;20039;-82
2023/02/22 08:47:48;;;;;;;5.03;4.05;;;12.10;74.00;;;;;;4911016;29;20036;-82
2023/02/22 08:50:20;;;;;;;6.32;4.20;;;12.10;74.00;;;;;;4919727;29;20054;-80
2023/02/22 08:52:46;;;;;;;6.60;4.20;;;12.10;74.00;;;;;;4924003;29;20174;-81
2023/02/22 08:55:12;;;;;;;3.55;3.25;;;12.10;74.00;;;;;;4917177;29;20984;-81
2023/02/22 08:57:38;;;;;;;5.28;3.80;;;12.10;73.90;;;;;;4923494;29;20052;-81
2023/02/22 09:00:05;;;;;;;4.53;3.58;;;12.10;73.90;;;;;;4911609;29;20035;-75
2023/02/22 09:02:31;;;;;;;4.65;4.20;;;12.10;73.90;;;;;;4912842;29;20097;-76
2023/02/22 09:04:57;;;;;;;4.07;3.67;;;12.20;74.10;;;;;;4919550;29;20065;-78
2023/02/22 09:07:23;;;;;;;4.18;3.30;;;12.20;74.10;;;;;;4922860;29;20055;-80
2023/02/22 09:09:49;;;;;;;4.13;2.53;;;12.20;74.10;;;;;;4921977;29;20420;-79
2023/02/22 09:12:15;;;;;;;3.55;3.10;;;12.30;74.20;;;;;;4922035;29;20035;-81
2023/02/22 09:14:41;;;;;;;4.68;2.78;;;12.30;74.10;;;;;;4918827;29;20216;-78
2023/02/22 09:17:07;;;;;;;3.92;3.53;;;12.30;74.10;;;;;;4921651;29;20054;-80
2023/02/22 09:19:33;;;;;;;3.15;2.45;;;12.40;74.30;;;;;;4921718;29;20042;-79
2023/02/22 09:22:00;;;;;;;2.38;2.10;;;12.40;74.20;;;;;;4926240;29;20542;-76
2023/02/22 09:24:26;;;;;;;2.22;1.83;;;12.40;74.10;;;;;;4921675;29;20090;-76
2023/02/22 09:26:52;;;;;;;2.53;2.00;;;12.50;74.20;;;;;;4911613;29;20032;-76
2023/02/22 09:29:24;;;;;;;2.05;1.75;;;12.50;74.10;;;;;;4915223;29;20040;-76
2023/02/22 09:31:53;;;;;;;2.42;2.13;;;12.60;74.10;;;;;;4920671;29;20036;-76
2023/02/22 09:34:21;;;;;;;2.40;2.20;;;12.70;74.20;;;;;;4904800;29;20167;-76
2023/02/22 09:36:48;;;;;;;2.47;2.00;;;12.80;74.40;;;;;;4923004;29;20059;-76
2023/02/22 09:39:15;;;;;;;2.22;1.83;;;13.00;74.60;;;;;;4919594;29;20110;-76
2023/02/22 09:41:56;;;;;;;2.58;1.88;;;13.10;74.60;;;;;;4913391;29;20038;-76
2023/02/22 09:44:35;;;;;;;1.92;1.70;;;13.30;74.50;;;;;;4920466;29;20051;-76
2023/02/22 09:47:03;;;;;;;2.90;1.48;;;13.50;74.90;;;;;;4916704;29;20032;-77
2023/02/22 09:49:46;;;;;;;1.60;1.35;;;13.70;74.30;;;;;;4920635;29;20086;-75
2023/02/22 09:52:17;;;;;;;;;;;13.80;74.10;;;;;;4918943;29;20136;-77
2023/02/22 09:54:50;;;;;;;3.35;2.22;;;13.90;74.00;;;;;;4922307;29;20375;-76
2023/02/22 09:57:27;;;;;;;2.45;1.48;;;14.00;73.80;;;;;;4921772;29;20492;-77
2023/02/22 10:00:12;;;;;;;2.90;1.45;;;14.10;73.80;;;;;;4925299;29;20071;-77
2023/02/22 10:02:46;;;;;;;1.52;1.00;;;14.20;73.70;;;;;;4908832;29;20387;-76
2023/02/22 10:05:16;;;;;;;1.65;1.20;;;14.30;73.60;;;;;;4917756;29;20046;-75
2023/02/22 10:07:57;;;;;;;1.33;0.90;;;14.30;73.30;;;;;;4921642;29;20048;-76
2023/02/22 10:10:25;;;;;;;1.15;1.05;;;14.40;73.80;;;;;;4917131;29;20036;-77
2023/02/22 10:13:04;;;;;;;2.53;1.20;;;14.40;73.20;;;;;;4913501;29;20063;-74
2023/02/22 10:15:52;;;;;;;1.23;0.88;;;14.50;73.10;;;;;;4922124;29;20600;-77
2023/02/22 10:18:43;;;;;;;1.40;1.05;;;14.60;73.10;;;;;;4922345;29;20452;-78
2023/02/22 10:21:36;;;;;;;1.27;1.05;;;14.60;72.90;;;;;;4910627;29;20032;-75
2023/02/22 10:24:26;;;;;;;1.27;0.95;;;14.70;72.90;;;;;;4918498;29;20032;-75
2023/02/22 10:26:54;;;;;;;3.05;1.17;;;14.80;72.90;;;;;;4912035;29;20048;-76
2023/02/22 10:29:42;;;;;;;1.83;1.00;;;14.80;73.20;;;;;;4912598;29;20048;-75
2023/02/22 10:32:24;;;;;;;1.83;1.10;;;14.90;72.60;;;;;;4920960;29;20346;-75
2023/02/22 10:34:53;;;;;;;1.30;0.90;;;15.00;72.50;;;;;;4921984;29;20047;-76
2023/02/22 10:37:26;;;;;;;2.60;1.00;;;15.10;72.50;;;;;;4925827;29;20384;-76
2023/02/22 10:40:17;;;;;;;2.75;0.95;;;15.20;72.30;;;;;;4921255;29;20047;-76
2023/02/22 10:42:43;;;;;;;1.67;0.90;;;15.30;72.10;;;;;;4920831;29;20069;-77
2023/02/22 10:45:31;;;;;;;1.33;0.88;;;15.50;72.00;;;;;;4914247;29;20048;-78
2023/02/22 10:48:07;;;;;;;1.45;0.90;;;15.70;71.60;;;;;;4924913;29;20044;-83
2023/02/22 10:50:34;;;;;;;1.20;0.82;;;15.90;71.50;;;;;;4925690;29;20071;-82
2023/02/22 10:53:00;;;;;;;2.40;1.00;;;16.00;71.10;;;;;;4925762;29;20032;-80
2023/02/22 10:55:26;;;;;;;1.60;0.70;;;16.10;70.70;;;;;;4917250;29;20484;-81
2023/02/22 10:58:02;;;;;;;0.95;0.70;;;16.20;70.40;;;;;;4923017;29;20032;-80
2023/02/22 11:00:32;;;;;;;1.50;0.77;;;16.30;70.00;;;;;;4912825;29;20039;-81
2023/02/22 11:03:00;;;;;;;3.80;1.30;;;16.40;70.00;;;;;;4926149;29;20369;-80
2023/02/22 11:05:37;;;;;;;4.38;2.28;;;16.40;69.70;;;;;;4921513;29;20414;-76
2023/02/22 11:08:29;;;;;;;1.83;1.00;;;16.50;69.20;;;;;;4923853;29;20028;-78
2023/02/22 11:11:17;;;;;;;1.67;0.93;;;16.50;68.70;;;;;;4915429;29;20107;-77
2023/02/22 11:13:43;;;;;;;3.65;0.90;;;16.40;68.50;;;;;;4924658;29;20059;-78
2023/02/22 11:16:29;;;;;;;3.00;0.98;;;16.40;68.50;;;;;;4917994;29;20103;-78
2023/02/22 11:19:19;;;;;;;2.40;1.10;;;16.40;68.10;;;;;;4915939;29;20385;-76
2023/02/22 11:21:50;;;;;;;2.72;1.75;;;16.40;68.00;;;;;;4922833;29;20519;-80
2023/02/22 11:24:18;;;;;;;1.63;1.00;;;16.50;68.10;;;;;;4925479;29;20492;-80
2023/02/22 11:26:55;;;;;;;1.80;0.80;;;16.40;67.80;;;;;;4924856;29;20039;-78
2023/02/22 11:29:31;;;;;;;1.42;0.75;;;16.40;67.60;;;;;;4919558;29;20422;-79
2023/02/22 11:32:01;;;;;;;1.55;0.80;;;16.30;67.30;;;;;;4928304;28;20143;-79
2023/02/22 11:34:39;;;;;;;1.90;0.80;;;16.30;67.40;;;;;;4924095;29;20032;-79
2023/02/22 11:37:24;;;;;;;2.00;1.08;;;16.20;67.10;;;;;;4921737;29;20486;-78
2023/02/22 11:40:06;;;;;;;2.15;1.15;;;16.10;66.90;;;;;;4922881;29;20036;-77
2023/02/22 11:42:32;;;;;;;1.48;0.82;;;16.00;66.90;;;;;;4925325;29;20042;-79
2023/02/22 11:45:12;;;;;;;1.48;0.60;;;16.10;67.20;;;;;;4923581;29;20044;-82
2023/02/22 11:48:01;;;;;;;2.72;1.05;;;16.10;66.90;;;;;;4926735;29;20135;-81
2023/02/22 11:50:32;;;;;;;3.58;1.67;;;16.20;66.70;;;;;;4926199;29;20043;-84
2023/02/22 11:53:20;;;;;;;2.30;1.20;;;16.30;66.70;;;;;;4910834;29;20442;-82
2023/02/22 11:55:49;;;;;;;4.45;1.77;;;16.40;66.60;;;;;;4914151;29;20134;-82
2023/02/22 11:58:23;;;;;;;1.77;1.13;;;16.50;66.70;;;;;;4917182;29;20503;-82
2023/02/22 12:01:06;;;;;;;1.88;1.10;;;16.60;66.70;;;;;;4920985;29;20115;-83
2023/02/22 12:03:47;;;;;;;2.40;1.30;;;16.80;66.60;;;;;;4921804;29;20036;-77
2023/02/22 12:06:41;;;;;;;7.18;1.05;;;16.90;66.40;;;;;;4923724;29;20410;-77
2023/02/22 12:09:27;;;;;;;;;;;16.90;66.20;;;;;;4913048;29;20499;-75
2023/02/22 12:12:11;;;;;;;3.03;1.15;;;16.90;66.40;;;;;;4913294;29;20343;-76
2023/02/22 12:14:43;;;;;;;1.00;0.68;;;16.80;66.40;;;;;;4922493;29;20072;-76
2023/02/22 12:17:27;;;;;;;2.20;1.00;;;16.80;66.40;;;;;;4918949;29;20067;-74
2023/02/22 12:20:00;;;;;;;4.75;1.23;;;16.80;66.20;;;;;;4917286;29;20036;-76
2023/02/22 12:22:34;;;;;;;1.90;1.05;;;16.60;65.90;;;;;;4917153;29;20138;-77
2023/02/22 12:25:21;;;;;;;3.17;1.00;;;16.60;66.10;;;;;;4920114;29;20103;-77
2023/02/22 12:27:59;;;;;;;1.80;1.33;;;16.60;66.10;;;;;;4918502;29;20044;-77
2023/02/22 12:30:38;;;;;;;1.60;0.80;;;16.60;66.30;;;;;;4922488;29;20580;-76
2023/02/22 12:33:18;;;;;;;4.25;0.80;;;16.60;66.10;;;;;;4918129;29;20043;-81
2023/02/22 12:35:54;;;;;;;2.55;0.60;;;16.70;66.20;;;;;;4924014;29;20087;-80
2023/02/22 12:38:43;;;;;;;3.05;0.70;;;16.70;65.90;;;;;;4915522;29;20436;-81
2023/02/22 12:41:24;;;;;;;0.93;0.80;;;16.80;65.70;;;;;;4924092;29;20118;-80
2023/02/22 12:44:02;;;;;;;2.25;0.80;;;16.90;65.80;;;;;;4916239;29;20730;-81
2023/02/22 12:46:43;;;;;;;1.52;0.68;;;17.00;65.70;;;;;;4917736;29;20517;-80
2023/02/22 12:49:14;;;;;;;1.67;0.93;;;17.00;65.30;;;;;;4920428;29;20039;-81
2023/02/22 12:51:55;;;;;;;1.88;0.77;;;17.10;65.30;;;;;;4915851;29;20062;-75
2023/02/22 12:54:33;;;;;;;1.65;0.63;;;17.10;65.30;;;;;;4920414;29;20237;-76
2023/02/22 12:57:17;;;;;;;2.20;1.17;;;17.00;65.10;;;;;;4922018;29;20039;-76